Latest Weather Observations for Armidale Airport

IDN60801

Issued at 3:32 am EDT Wednesday 1 March 2017 (issued every 30 minutes, with the page automatically refreshed every 10 minutes)

About weather observations | Map of weather stations | Latest weather observations for NSW | Other Formats
Station Details ID: 056238 Name: ARMIDALE AIRPORT AWS Lat: -30.53 Lon: 151.62 Height: 1079.0 m
Data from the previous 72 hours. | See also: Recent months at Armidale Airport
Date/Time
EDT
Temp
°C
App
Temp
°C
Dew
Point
°C
Rel
Hum
%
Delta-T
°C
Wind Press
QNH
hPa
Press
MSL
hPa
Rain since
9am
mm
Dir  Spd
km/h
Gust
km/h
Spd
kts
Gust
kts
01/03:30am 14.4 12.6 14.4 100 0.0 E 17 20 9 11 1020.9 1015.2 2.0
01/03:00am 14.3 12.4 14.3 100 0.0 ESE 17 22 9 12 1021.1 1015.4 2.0
01/02:49am 14.5 12.3 14.5 100 0.0 E 19 22 10 12 1021.3 1015.6 2.0
01/02:30am 14.4 12.2 14.4 100 0.0 E 19 24 10 13 1021.5 1015.8 2.0
01/02:00am 14.3 11.9 14.3 100 0.0 ENE 20 28 11 15 1021.5 1015.8 2.0
01/01:30am 14.5 13.1 14.5 100 0.0 ENE 15 20 8 11 1021.8 1016.1 2.0
01/01:00am 14.7 13.0 14.7 100 0.0 ENE 17 22 9 12 1022.0 1016.4 2.0
01/12:30am 14.8 13.5 14.8 100 0.0 E 15 19 8 10 1022.2 1016.6 2.0
01/12:00am 14.7 13.4 14.7 100 0.0 ESE 15 20 8 11 1022.4 1016.7 2.0
 
Date/Time
EDT
Temp
°C
App
Temp
°C
Dew
Point
°C
Rel
Hum
%
Delta-T
°C
Wind Press
QNH
hPa
Press
MSL
hPa
Rain since
9am
mm
Dir  Spd
km/h
Gust
km/h
Spd
kts
Gust
kts
28/11:30pm 14.8 13.5 14.8 100 0.0 E 15 20 8 11 1022.2 1016.6 2.0
28/11:25pm 14.7 13.4 14.7 100 0.0 ESE 15 20 8 11 1022.2 1016.6 2.0
28/11:00pm 14.7 12.6 14.7 100 0.0 E 19 24 10 13 1022.6 1016.9 2.0
28/10:47pm 14.7 12.6 14.7 100 0.0 E 19 22 10 12 1022.7 1017.0 2.0
28/10:30pm 14.7 13.0 14.7 100 0.0 E 17 24 9 13 1022.7 1017.0 2.0
28/10:29pm 14.7 12.6 14.7 100 0.0 E 19 24 10 13 1022.7 1017.0 2.0
28/10:07pm 14.8 13.9 14.8 100 0.0 E 13 20 7 11 1022.8 1017.1 2.0
28/10:00pm 14.8 13.5 14.8 100 0.0 E 15 20 8 11 1022.8 1017.1 2.0
28/09:39pm 14.9 14.4 14.9 100 0.0 E 11 15 6 8 1022.8 1017.1 2.0
28/09:30pm 14.9 14.4 14.9 100 0.0 E 11 15 6 8 1022.8 1017.1 2.0
28/09:27pm 14.9 14.0 14.9 100 0.0 E 13 17 7 9 1022.8 1017.1 2.0
28/09:15pm 14.9 14.4 14.9 100 0.0 E 11 15 6 8 1022.7 1017.0 1.6
28/09:00pm 14.9 14.4 14.9 100 0.0 E 11 15 6 8 1022.6 1016.9 1.6
28/08:30pm 14.9 14.8 14.9 100 0.0 E 9 13 5 7 1022.5 1016.8 1.6
28/08:00pm 14.9 14.0 14.9 100 0.0 E 13 15 7 8 1022.4 1016.7 1.6
28/07:37pm 14.9 14.0 14.9 100 0.0 E 13 17 7 9 1022.1 1016.5 1.6
28/07:30pm 15.0 14.2 15.0 100 0.0 E 13 15 7 8 1022.1 1016.5 1.6
28/07:00pm 15.0 14.2 15.0 100 0.0 E 13 19 7 10 1022.0 1016.4 1.6
28/06:30pm 14.9 13.3 14.9 100 0.0 ESE 17 20 9 11 1021.9 1016.2 1.6
28/06:00pm 15.1 13.5 15.1 100 0.0 ESE 17 26 9 14 1021.8 1016.1 1.4
28/05:43pm 15.3 13.7 15.1 99 0.1 ESE 17 22 9 12 1021.8 1016.1 1.0
28/05:30pm 15.2 13.0 15.0 99 0.1 ESE 20 32 11 17 1021.7 1016.0 1.0
28/05:21pm 15.6 12.5 14.6 94 0.6 SE 24 33 13 18 1021.7 1016.0 0.6
28/05:00pm 17.9 15.2 14.6 81 2.0 SE 22 30 12 16 1021.4 1015.7 0.6
28/04:30pm 18.6 16.5 16.2 86 1.5 SE 22 30 12 16 1021.1 1015.4 0.6
28/04:00pm 17.9 14.9 14.8 82 1.9 SE 24 32 13 17 1021.3 1015.6 0.6
28/03:30pm 18.2 15.1 14.5 79 2.2 SE 24 35 13 19 1021.5 1015.8 0.6
28/03:00pm 19.1 16.1 14.8 76 2.6 ESE 24 35 13 19 1021.7 1016.0 0.6
28/02:30pm 18.4 16.0 15.5 83 1.8 ESE 22 32 12 17 1022.1 1016.5 0.6
28/02:00pm 19.4 16.9 16.1 81 2.1 ESE 24 39 13 21 1022.1 1016.5 0.6
28/01:30pm 19.1 15.5 15.2 78 2.4 ESE 28 33 15 18 1022.4 1016.7 0.6
28/01:00pm 18.4 15.8 16.0 86 1.5 ESE 24 33 13 18 1022.8 1017.1 0.6
28/12:30pm 18.1 14.6 15.4 84 1.7 ESE 28 39 15 21 1023.1 1017.5 0.6
28/12:10pm 18.6 15.2 15.8 84 1.7 ESE 28 39 15 21 1023.0 1017.4 0.4
28/12:00pm 18.3 15.2 15.7 85 1.6 ESE 26 35 14 19 1023.1 1017.5 0.4
28/11:53am 18.0 15.0 15.8 87 1.4 ESE 26 33 14 18 1023.1 1017.5 0.4
28/11:30am 17.4 16.1 17.2 99 0.1 ESE 20 30 11 16 1023.4 1017.7 0.4
28/11:00am 16.1 14.3 15.9 99 0.1 ESE 20 30 11 16 1023.4 1017.7 0.4
28/10:30am 15.6 12.8 15.4 99 0.1 ESE 24 33 13 18 1023.5 1017.8 0.4
28/10:12am 15.5 13.1 15.5 100 0.0 ESE 22 32 12 17 1023.4 1017.7 0.4
28/10:00am 15.2 13.3 15.2 100 0.0 ESE 19 24 10 13 1023.4 1017.7 0.4
28/09:53am 14.9 12.7 14.9 100 0.0 ESE 20 26 11 14 1023.4 1017.7 0.4
28/09:42am 15.0 13.0 15.0 100 0.0 ESE 19 26 10 14 1023.4 1017.7 0.0
28/09:30am 15.1 13.5 15.1 100 0.0 SE 17 22 9 12 1023.2 1017.6 0.0
28/09:21am 15.2 13.3 15.2 100 0.0 ESE 19 26 10 14 1023.2 1017.6 0.0
28/09:00am 14.8 12.6 14.8 100 0.0 ESE 20 30 11 16 1023.0 1017.4 0.0
28/08:30am 14.5 12.1 14.5 100 0.0 ESE 20 30 11 16 1022.8 1017.1 0.0
28/08:00am 14.2 11.7 14.2 100 0.0 ESE 20 26 11 14 1022.6 1016.9 0.0
28/07:51am 14.0 11.5 14.0 100 0.0 ESE 20 26 11 14 1022.5 1016.8 0.0
28/07:30am 14.0 11.7 14.0 100 0.0 ESE 19 22 10 12 1022.5 1016.8 0.0
28/07:07am 14.0 12.0 14.0 100 0.0 ESE 17 24 9 13 1022.2 1016.6 0.0
28/07:00am 14.0 12.0 14.0 100 0.0 ESE 17 22 9 12 1022.2 1016.6 0.0
28/06:30am 14.0 11.5 14.0 100 0.0 ESE 20 28 11 15 1022.0 1016.4 0.0
28/06:00am 14.0 11.7 14.0 100 0.0 ESE 19 28 10 15 1021.9 1016.2 0.0
28/05:30am 13.9 11.5 13.9 100 0.0 ESE 19 26 10 14 1021.7 1016.0 0.0
28/05:00am 13.9 11.5 13.9 100 0.0 ESE 19 28 10 15 1021.7 1016.0 0.0
28/04:30am 13.7 11.6 13.7 100 0.0 ESE 17 22 9 12 1021.6 1015.9 0.0
28/04:00am 13.7 11.3 13.7 100 0.0 ESE 19 28 10 15 1021.9 1016.2 0.0
28/03:30am 13.7 11.1 13.7 100 0.0 ESE 20 28 11 15 1022.0 1016.4 0.0
28/03:00am 13.7 11.1 13.7 100 0.0 ESE 20 30 11 16 1022.5 1016.8 0.0
28/02:30am 13.7 10.6 13.5 99 0.1 ESE 22 32 12 17 1022.5 1016.8 0.0
28/02:00am 13.8 11.3 13.6 99 0.1 ESE 19 26 10 14 1022.6 1016.9 0.0
28/01:30am 14.0 11.4 13.8 99 0.1 ESE 20 32 11 17 1023.0 1017.4 0.0
28/01:00am 14.1 11.5 13.9 99 0.1 E 20 30 11 16 1023.1 1017.5 0.0
28/12:30am 14.0 11.6 13.8 99 0.1 ESE 19 24 10 13 1023.0 1017.4 0.0
28/12:00am 14.0 12.0 13.8 99 0.1 ESE 17 24 9 13 1023.1 1017.5 0.0
 
Date/Time
EDT
Temp
°C
App
Temp
°C
Dew
Point
°C
Rel
Hum
%
Delta-T
°C
Wind Press
QNH
hPa
Press
MSL
hPa
Rain since
9am
mm
Dir  Spd
km/h
Gust
km/h
Spd
kts
Gust
kts
27/11:30pm 14.1 11.7 13.9 99 0.1 ESE 19 28 10 15 1023.5 1017.8 0.0
27/11:00pm 14.1 11.5 13.9 99 0.1 ESE 20 28 11 15 1023.9 1018.3 0.0
27/10:30pm 14.2 10.9 14.0 99 0.1 ESE 24 33 13 18 1024.2 1018.6 0.0
27/10:00pm 14.1 11.5 13.9 99 0.1 ESE 20 30 11 16 1024.2 1018.6 0.0
27/09:30pm 13.7 11.2 13.5 99 0.1 ESE 19 24 10 13 1023.9 1018.3 0.0
27/09:00pm 13.7 11.6 13.7 100 0.0 ESE 17 24 9 13 1023.9 1018.3 0.0
27/08:34pm 13.6 11.4 13.4 99 0.1 E 17 26 9 14 1023.8 1018.2 0.0
27/08:30pm 13.5 11.3 13.3 99 0.1 ESE 17 24 9 13 1023.7 1018.1 0.0
27/08:00pm 13.7 11.2 13.5 99 0.1 ESE 19 26 10 14 1023.5 1017.8 0.0
27/07:30pm 14.0 11.8 13.4 96 0.4 ESE 17 22 9 12 1023.2 1017.6 0.0
27/07:00pm 14.3 11.5 12.7 90 0.9 ESE 19 26 10 14 1023.0 1017.4 0.0
27/06:30pm 14.1 12.0 12.5 90 0.9 ESE 15 24 8 13 1022.8 1017.1 0.0
27/06:00pm 14.9 11.7 11.9 82 1.7 ESE 20 28 11 15 1022.9 1017.3 0.0
27/05:30pm 15.3 12.2 12.2 82 1.8 ESE 20 30 11 16 1023.0 1017.4 0.0
27/05:00pm 15.1 11.8 14.0 93 0.7 ESE 24 33 13 18 1023.0 1017.4 0.0
27/04:39pm 16.1 11.5 13.6 85 1.5 ESE 30 43 16 23 1022.9 1017.3 0.0
27/04:30pm 17.1 12.1 13.4 79 2.2 SE 32 43 17 23 1022.8 1017.1 0.0
27/04:00pm 15.9 12.1 14.8 93 0.7 ESE 28 39 15 21 1022.7 1017.0 0.0
27/03:43pm 16.3 12.1 14.7 90 1.0 SE 30 41 16 22 1022.8 1017.1 0.0
27/03:30pm 16.7 11.6 13.6 82 1.8 ESE 33 44 18 24 1022.8 1017.1 0.0
27/03:00pm 17.5 12.6 13.8 79 2.2 SSE 32 44 17 24 1023.0 1017.4 0.0
27/02:30pm 16.9 13.3 15.2 90 1.0 SSE 28 39 15 21 1023.2 1017.6 0.0
27/02:00pm 15.9 12.2 13.9 88 1.2 SSE 26 35 14 19 1022.9 1017.3 0.0
27/01:30pm 19.0 14.6 13.0 68 3.6 SSE 28 37 15 20 1022.9 1017.3 0.0
27/01:00pm 20.9 17.5 12.6 59 4.9 SE 22 32 12 17 1023.1 1017.5 0.0
27/12:30pm 20.0 17.2 13.2 65 4.1 ESE 20 32 11 17 1023.4 1017.7 0.0
27/12:00pm 19.4 16.9 14.0 71 3.3 SE 20 30 11 16 1023.8 1018.2 0.0
27/11:30am 19.4 16.6 14.2 72 3.2 ESE 22 33 12 18 1024.1 1018.5 0.0
27/11:00am 18.4 15.9 14.1 76 2.6 SE 20 28 11 15 1024.1 1018.5 0.0
27/10:30am 17.8 14.5 13.9 78 2.3 E 24 32 13 17 1024.1 1018.5 0.0
27/10:01am 17.5 15.0 14.0 80 2.1 E 20 28 11 15 1024.1 1018.5 0.0
27/10:00am 17.6 15.1 14.1 80 2.1 E 20 28 11 15 1024.1 1018.5 0.0
27/09:30am 17.1 14.4 14.6 85 1.5 E 22 30 12 16 1023.6 1017.9 0.0
27/09:00am 15.6 13.2 14.5 93 0.7 ESE 20 28 11 15 1023.7 1018.1 0.0
27/08:30am 15.2 12.4 14.2 94 0.6 ESE 22 32 12 17 1023.7 1018.1 0.0
27/08:00am 14.1 12.1 13.9 99 0.1 ESE 17 22 9 12 1023.6 1017.9 0.0
27/07:30am 13.5 11.7 13.3 99 0.1 E 15 20 8 11 1023.4 1017.7 0.0
27/07:00am 12.6 11.3 12.4 99 0.1 E 11 13 6 7 1022.8 1017.1 0.0
27/06:49am 12.8 11.1 12.6 99 0.1 E 13 17 7 9 1022.8 1017.1 0.0
27/06:30am 12.8 10.8 12.6 99 0.1 ESE 15 22 8 12 1022.7 1017.0 0.0
27/06:00am 12.8 10.4 12.5 98 0.2 SE 17 20 9 11 1022.6 1016.9 0.0
27/05:30am 13.3 10.9 12.8 97 0.3 SE 17 24 9 13 1022.5 1016.8 0.0
27/05:00am 13.4 11.0 12.8 96 0.3 ESE 17 22 9 12 1022.2 1016.6 0.0
27/04:30am 13.4 11.0 12.8 96 0.3 ESE 17 20 9 11 1021.9 1016.2 0.0
27/04:20am 13.4 11.4 12.8 96 0.3 ESE 15 20 8 11 1021.9 1016.2 0.0
27/04:00am 13.4 11.0 12.8 96 0.3 ESE 17 20 9 11 1022.0 1016.4 0.0
27/03:30am 13.2 10.8 12.6 96 0.3 ESE 17 20 9 11 1022.4 1016.7 0.0
27/03:00am 12.9 10.4 12.4 97 0.3 ESE 17 22 9 12 1022.5 1016.8 0.0
27/02:35am 12.8 11.0 12.2 96 0.3 ESE 13 17 7 9 1022.6 1016.9 0.0
27/02:30am 12.8 11.0 12.2 96 0.3 E 13 19 7 10 1022.5 1016.8 0.0
27/02:00am 13.3 10.1 12.0 92 0.7 E 20 26 11 14 1022.7 1017.0 0.0
27/01:33am 13.9 11.1 12.5 91 0.8 ESE 19 28 10 15 1023.0 1017.4 0.0
27/01:30am 14.0 11.0 12.6 91 0.8 ESE 20 28 11 15 1023.0 1017.4 0.0
27/01:26am 14.0 11.0 12.6 91 0.8 ESE 20 28 11 15 1023.0 1017.4 0.0
27/01:00am 14.0 11.7 12.9 93 0.6 ESE 17 24 9 13 1023.1 1017.5 0.0
27/12:30am 14.1 11.7 12.8 92 0.8 ESE 17 22 9 12 1023.2 1017.6 0.0
27/12:13am 13.8 11.0 12.7 93 0.6 ESE 19 24 10 13 1023.1 1017.5 0.0
27/12:00am 13.9 10.9 12.6 92 0.7 ESE 20 30 11 16 1023.1 1017.5 0.0
 
Date/Time
EDT
Temp
°C
App
Temp
°C
Dew
Point
°C
Rel
Hum
%
Delta-T
°C
Wind Press
QNH
hPa
Press
MSL
hPa
Rain since
9am
mm
Dir  Spd
km/h
Gust
km/h
Spd
kts
Gust
kts
26/11:36pm 14.1 11.3 13.3 95 0.5 ESE 20 28 11 15 1023.1 1017.5 0.0
26/11:30pm 13.9 11.8 13.6 98 0.2 ESE 17 28 9 15 1023.1 1017.5 0.0
26/11:11pm 13.7 11.6 13.5 99 0.1 ESE 17 22 9 12 1023.2 1017.6 0.0
26/11:00pm 13.7 11.6 13.5 99 0.1 ESE 17 22 9 12 1023.2 1017.6 0.0
26/10:35pm 13.7 11.2 13.5 99 0.1 E 19 26 10 14 1023.4 1017.7 0.0
26/10:30pm 13.8 11.3 13.5 98 0.2 E 19 26 10 14 1023.4 1017.7 0.0
26/10:00pm 14.7 11.8 13.9 95 0.5 E 22 30 12 16 1023.6 1017.9 0.0
26/09:30pm 14.6 12.1 14.1 97 0.3 E 20 24 11 13 1023.5 1017.8 0.0
26/09:18pm 14.3 11.7 13.7 96 0.4 E 20 24 11 13 1023.2 1017.6 0.0
26/09:00pm 14.4 11.9 13.4 94 0.6 E 19 22 10 12 1023.2 1017.6 0.0
26/08:30pm 14.7 12.2 13.4 92 0.8 E 19 26 10 14 1022.8 1017.1 0.0
26/08:00pm 15.1 13.2 14.1 94 0.6 E 17 24 9 13 1022.6 1016.9 0.0
26/07:50pm 15.2 12.7 14.1 93 0.7 ESE 20 30 11 16 1022.6 1016.9 0.0
26/07:30pm 15.6 13.2 13.8 89 1.1 ESE 19 26 10 14 1022.2 1016.6 0.0
26/07:20pm 15.9 13.0 13.9 88 1.2 E 22 30 12 16 1022.1 1016.5 0.0
26/07:00pm 16.1 13.4 13.6 85 1.5 ESE 20 28 11 15 1022.1 1016.5 0.0
26/06:30pm 16.7 12.5 12.5 76 2.4 E 26 37 14 20 1022.0 1016.4 0.0
26/06:00pm 18.8 15.0 13.6 72 3.1 ESE 26 37 14 20 1021.5 1015.8 0.0
26/05:30pm 19.3 15.2 11.6 61 4.5 SE 24 32 13 17 1020.9 1015.2 0.0
26/05:00pm 20.2 16.2 11.9 59 4.9 ESE 24 37 13 20 1020.4 1014.7 0.0
26/04:30pm 20.6 16.7 12.1 58 5.0 ESE 24 32 13 17 1020.7 1015.0 0.0
26/04:00pm 20.9 17.5 12.6 59 4.9 ESE 22 32 12 17 1021.0 1015.3 0.0
26/03:30pm 20.5 17.0 13.5 64 4.2 ESE 24 33 13 18 1021.3 1015.6 0.0
26/03:00pm 20.4 15.5 12.4 60 4.7 ESE 30 39 16 21 1021.5 1015.8 0.0
26/02:30pm 20.2 16.5 13.9 67 3.8 ESE 26 44 14 24 1021.7 1016.0 0.0
26/02:00pm 20.8 16.2 12.2 58 5.1 ESE 28 39 15 21 1021.8 1016.1 0.0
26/01:30pm 20.6 16.3 12.1 58 5.0 E 26 33 14 18 1022.4 1016.7 0.0
26/01:00pm 18.0 12.4 12.0 68 3.5 E 33 46 18 25 1022.6 1016.9 0.0
26/12:49pm 19.2 14.9 13.2 68 3.6 E 28 52 15 28 1022.4 1016.7 0.0
26/12:30pm 20.9 17.4 14.5 67 3.9 ESE 26 33 14 18 1022.5 1016.8 0.0
26/12:00pm 20.7 18.1 14.8 69 3.6 ESE 22 33 12 18 1022.6 1016.9 0.0
26/11:30am 20.3 17.5 14.4 69 3.6 ESE 22 30 12 16 1022.5 1016.8 0.0
26/11:00am 19.7 17.0 14.5 72 3.2 ESE 22 32 12 17 1022.7 1017.0 0.0
26/10:30am 18.8 16.7 15.1 79 2.3 ESE 20 32 11 17 1022.5 1016.8 0.0
26/10:00am 17.4 14.6 14.3 82 1.9 ESE 22 32 12 17 1022.6 1016.9 0.0
26/09:30am 18.0 15.5 15.1 83 1.8 ESE 22 30 12 16 1022.4 1016.7 0.0
26/09:03am 17.1 14.3 14.4 84 1.6 ESE 22 30 12 16 1022.1 1016.5 0.0
26/09:00am 17.4 14.6 14.3 82 1.9 ESE 22 30 12 16 1022.1 1016.5 0.0
26/08:30am 16.2 14.3 15.1 93 0.7 ESE 19 30 10 16 1021.8 1016.1 0.0
26/08:00am 15.6 14.0 15.1 97 0.3 ESE 17 26 9 14 1021.4 1015.7 0.0
26/07:30am 15.2 13.6 15.0 99 0.1 ESE 17 24 9 13 1021.0 1015.3 0.0
26/07:00am 15.1 13.8 14.9 99 0.1 ESE 15 20 8 11 1020.5 1014.8 0.0
26/06:51am 14.9 13.2 14.7 99 0.1 ESE 17 26 9 14 1020.4 1014.7 0.0
26/06:30am 14.9 12.8 14.7 99 0.1 E 19 24 10 13 1020.0 1014.3 0.0
26/06:07am 15.0 13.3 14.8 99 0.1 E 17 22 9 12 1019.9 1014.2 0.0
26/06:00am 15.0 12.9 14.8 99 0.1 E 19 22 10 12 1019.8 1014.1 0.0
26/05:30am 15.3 13.7 15.1 99 0.1 ESE 17 24 9 13 1019.5 1013.8 0.0
26/05:00am 15.3 13.7 15.1 99 0.1 E 17 22 9 12 1019.5 1013.8 0.0
26/04:30am 15.1 13.1 14.9 99 0.1 E 19 24 10 13 1019.3 1013.5 0.0
26/04:00am 15.4 13.5 15.2 99 0.1 E 19 28 10 15 1019.5 1013.8 0.0

Other Formats:

Comma delimited format used in spreadsheet applications
http://www.bom.gov.au/fwo/IDN60801/IDN60801.95773.axf

JavaScript Object Notation format (JSON) in row-major order
http://www.bom.gov.au/fwo/IDN60801/IDN60801.95773.json